.
WxDataArchive / Data Records for 2011-12-30
2011-12-29 December 2011 2011-12-31

Data Records for Friday, 30 December 2011

Time	Temp	Chill	HIndex	Humid	Dewpt	 Wind 	HiWind	WindDir	Rain 	Barom 
-----	----	-----	------	-----	-----	------	------	-------	-----	----- 
00:00	39.6	39.6	39.6	86	35.8	0	4	248	0.00	29.744 
00:05	39.6	39.6	39.6	86	35.8	0	3	248	0.00	29.744 
00:10	39.5	39.5	39.5	86	35.7	0	2	248	0.00	29.744 
00:15	39.3	39.3	39.3	86	35.5	0	2	248	0.00	29.744 
00:20	39.3	39.3	39.3	87	35.8	0	3	248	0.00	29.744 
00:25	39.3	39.3	39.3	87	35.8	0	2	248	0.00	29.744 
00:30	39.2	39.2	39.2	87	35.7	0	3	248	0.00	29.744 
00:35	39.2	39.2	39.2	87	35.7	0	3	248	0.00	29.744 
00:40	39.3	39.3	39.3	87	35.8	1	4	248	0.00	29.744 
00:45	39.3	39.3	39.3	87	35.8	1	3	248	0.00	29.739 
00:50	39.5	39.5	39.5	87	36.0	0	1	248	0.00	29.739 
00:55	39.3	39.3	39.3	87	35.8	0	1	248	0.00	29.739 
01:00	39.3	39.3	39.3	87	35.8	0	2	248	0.00	29.737 
01:05	39.3	39.3	39.3	87	35.8	0	2	248	0.00	29.737 
01:10	39.2	39.2	39.2	87	35.7	0	3	248	0.00	29.737 
01:15	39.2	39.2	39.2	87	35.7	0	2	248	0.00	29.732 
01:20	39.2	39.2	39.2	87	35.7	0	1	248	0.00	29.732 
01:25	39.1	39.1	39.1	87	35.6	0	1	248	0.00	29.732 
01:30	39.1	39.1	39.1	87	35.6	0	1	248	0.00	29.739 
01:35	38.9	38.9	38.9	88	35.7	0	1	248	0.00	29.739 
01:40	38.9	38.9	38.9	87	35.4	0	1	248	0.00	29.739 
01:45	38.8	38.8	38.8	88	35.6	0	1	248	0.00	29.744 
01:50	38.8	38.8	38.8	88	35.6	0	1	248	0.00	29.744 
01:55	38.8	38.8	38.8	88	35.6	0	2	248	0.00	29.744 
02:00	38.8	38.8	38.8	88	35.6	0	2	248	0.00	29.747 
02:05	38.8	38.8	38.8	88	35.6	0	2	248	0.00	29.747 
02:10	38.8	38.8	38.8	88	35.6	0	1	248	0.00	29.747 
02:15	38.6	38.6	38.6	88	35.4	0	0	---	0.00	29.747 
02:20	38.5	38.5	38.5	88	35.3	0	0	---	0.00	29.747 
02:25	38.3	38.3	38.3	88	35.1	0	0	---	0.00	29.747 
02:30	38.2	38.2	38.2	88	35.0	0	0	---	0.00	29.753 
02:35	38.0	38.0	38.0	88	34.8	0	0	---	0.00	29.753 
02:40	37.9	37.9	37.9	88	34.7	0	0	---	0.00	29.753 
02:45	37.8	37.8	37.8	88	34.6	0	0	---	0.00	29.751 
02:50	37.6	37.6	37.6	88	34.4	0	0	---	0.00	29.751 
02:55	37.3	37.3	37.3	89	34.4	0	0	---	0.00	29.751 
03:00	37.2	37.2	37.2	89	34.3	0	0	---	0.00	29.757 
03:05	37.0	37.0	37.0	89	34.1	0	0	---	0.00	29.757 
03:10	36.9	36.9	36.9	89	34.0	0	0	---	0.00	29.757 
03:15	36.8	36.8	36.8	89	33.9	0	0	---	0.00	29.758 
03:20	36.8	36.8	36.8	89	33.9	0	1	248	0.00	29.758 
03:25	36.6	36.6	36.6	89	33.7	0	0	---	0.00	29.758 
03:30	36.6	36.6	36.6	90	33.9	0	1	248	0.00	29.767 
03:35	36.8	36.8	36.8	90	34.1	0	1	248	0.00	29.767 
03:40	36.9	36.9	36.9	90	34.2	0	0	---	0.00	29.767 
03:45	37.0	37.0	37.0	90	34.3	0	0	---	0.00	29.767 
03:50	37.0	37.0	37.0	91	34.6	0	0	---	0.00	29.767 
03:55	37.0	37.0	37.0	91	34.6	0	0	---	0.00	29.767 
04:00	37.0	37.0	37.0	91	34.6	0	0	---	0.00	29.768 
04:05	37.2	37.2	37.2	91	34.8	0	1	248	0.00	29.768 
04:10	37.2	37.2	37.2	91	34.8	0	0	---	0.00	29.768 
04:15	37.2	37.2	37.2	91	34.8	0	0	---	0.00	29.771 
04:20	37.3	37.3	37.3	91	34.9	0	0	---	0.00	29.771 
04:25	37.3	37.3	37.3	90	34.6	0	0	---	0.00	29.771 
04:30	37.3	37.3	37.3	91	34.9	0	0	---	0.00	29.767 
04:35	37.3	37.3	37.3	91	34.9	0	0	---	0.00	29.767 
04:40	37.3	37.3	37.3	91	34.9	0	0	---	0.00	29.767 
04:45	37.3	37.3	37.3	91	34.9	0	0	---	0.00	29.757 
04:50	37.3	37.3	37.3	91	34.9	0	0	---	0.00	29.757 
04:55	37.3	37.3	37.3	90	34.6	0	0	---	0.00	29.757 
05:00	37.3	37.3	37.3	90	34.6	0	0	---	0.00	29.753 
05:05	37.3	37.3	37.3	90	34.6	0	0	---	0.00	29.753 
05:10	37.3	37.3	37.3	90	34.6	0	0	---	0.00	29.753 
05:15	37.3	37.3	37.3	90	34.6	0	0	---	0.00	29.749 
05:20	37.5	37.5	37.5	90	34.8	0	1	248	0.00	29.749 
05:25	37.6	37.6	37.6	91	35.2	0	0	---	0.00	29.749 
05:30	37.6	37.6	37.6	91	35.2	0	0	---	0.00	29.754 
05:35	37.6	37.6	37.6	91	35.2	0	0	---	0.00	29.754 
05:40	37.6	37.6	37.6	91	35.2	0	0	---	0.00	29.754 
05:45	37.6	37.6	37.6	91	35.2	0	0	---	0.00	29.756 
05:50	37.6	37.6	37.6	91	35.2	0	0	---	0.00	29.756 
05:55	37.6	37.6	37.6	91	35.2	0	1	248	0.00	29.756 
06:00	37.6	37.6	37.6	91	35.2	0	0	---	0.00	29.755 
06:05	37.6	37.6	37.6	91	35.2	0	0	---	0.00	29.755 
06:10	37.6	37.6	37.6	91	35.2	0	0	---	0.00	29.755 
06:15	37.6	37.6	37.6	91	35.2	0	1	248	0.00	29.746 
06:20	37.6	37.6	37.6	91	35.2	0	2	248	0.00	29.746 
06:25	37.8	37.8	37.8	91	35.4	0	2	248	0.00	29.746 
06:30	37.9	37.9	37.9	91	35.5	0	1	248	0.00	29.737 
06:35	38.0	38.0	38.0	91	35.6	1	2	248	0.00	29.737 
06:40	38.0	38.0	38.0	90	35.3	0	2	248	0.00	29.737 
06:45	38.0	38.0	38.0	90	35.3	0	1	248	0.00	29.736 
06:50	38.0	38.0	38.0	90	35.3	0	1	248	0.00	29.736 
06:55	38.0	38.0	38.0	90	35.3	0	1	248	0.00	29.736 
07:00	38.2	38.2	38.2	90	35.5	0	1	248	0.00	29.737 
07:05	38.2	38.2	38.2	90	35.5	0	1	248	0.00	29.737 
07:10	38.2	38.2	38.2	90	35.5	0	0	---	0.00	29.737 
07:15	38.2	38.2	38.2	90	35.5	0	1	248	0.00	29.738 
07:20	38.3	38.3	38.3	90	35.6	0	1	248	0.00	29.738 
07:25	38.3	38.3	38.3	90	35.6	0	2	248	0.00	29.738 
07:30	38.3	38.3	38.3	90	35.6	0	1	248	0.00	29.738 
07:35	38.3	38.3	38.3	90	35.6	0	2	248	0.00	29.738 
07:40	38.3	38.3	38.3	90	35.6	0	1	248	0.00	29.738 
07:45	38.3	38.3	38.3	90	35.6	0	2	248	0.00	29.736 
07:50	38.3	38.3	38.3	90	35.6	0	1	248	0.00	29.736 
07:55	38.3	38.3	38.3	90	35.6	0	0	---	0.00	29.736 
08:00	38.3	38.3	38.3	90	35.6	0	1	248	0.00	29.732 
08:05	38.3	38.3	38.3	90	35.6	0	2	248	0.00	29.732 
08:10	38.3	38.3	38.3	90	35.6	0	1	248	0.00	29.732 
08:15	38.5	38.5	38.5	90	35.8	0	0	---	0.00	29.735 
08:20	38.5	38.5	38.5	90	35.8	0	1	248	0.00	29.735 
08:25	38.5	38.5	38.5	91	36.1	0	2	248	0.00	29.735 
08:30	38.6	38.6	38.6	91	36.2	0	2	248	0.00	29.725 
08:35	38.8	38.8	38.8	91	36.4	1	2	248	0.01	29.725 
08:40	38.8	38.8	38.8	91	36.4	0	2	248	0.00	29.725 
08:45	38.8	38.8	38.8	91	36.4	0	1	248	0.01	29.721 
08:50	38.9	38.9	38.9	91	36.5	0	1	248	0.01	29.721 
08:55	38.9	38.9	38.9	92	36.8	0	1	248	0.00	29.721 
09:00	39.1	39.1	39.1	92	37.0	0	1	248	0.01	29.722 
09:05	39.1	39.1	39.1	92	37.0	0	1	248	0.00	29.722 
09:10	39.2	39.2	39.2	92	37.1	0	1	248	0.01	29.722 
09:15	39.2	39.2	39.2	92	37.1	0	1	248	0.01	29.713 
09:20	39.3	39.3	39.3	92	37.2	0	1	248	0.00	29.713 
09:25	39.5	39.5	39.5	92	37.4	0	1	248	0.01	29.713 
09:30	39.6	39.6	39.6	93	37.7	1	3	248	0.00	29.707 
09:35	39.6	39.6	39.6	93	37.7	1	3	248	0.00	29.707 
09:40	39.9	39.9	39.9	93	38.0	2	4	112	0.00	29.707 
09:45	40.1	40.1	40.1	93	38.2	1	2	112	0.00	29.695 
09:50	40.2	40.2	40.2	94	38.6	2	3	112	0.00	29.695 
09:55	40.3	40.3	40.3	94	38.7	1	3	112	0.00	29.695 
10:00	40.5	40.5	40.5	94	38.9	1	3	112	0.00	29.695 
10:05	40.6	40.6	40.6	94	39.0	1	3	112	0.00	29.695 
10:10	40.8	40.8	40.8	94	39.2	1	3	112	0.00	29.695 
10:15	40.9	40.9	40.9	94	39.3	1	4	112	0.00	29.701 
10:20	41.1	41.1	41.1	94	39.5	1	6	112	0.00	29.701 
10:25	41.3	41.3	41.3	94	39.7	1	4	68	0.00	29.701 
10:30	41.5	41.5	41.5	94	39.9	1	5	90	0.00	29.694 
10:35	41.6	41.6	41.6	94	40.0	1	4	90	0.00	29.694 
10:40	41.8	41.8	41.8	94	40.2	1	4	90	0.00	29.694 
10:45	41.9	41.9	41.9	94	40.3	1	4	90	0.00	29.682 
10:50	42.3	42.3	42.3	94	40.7	2	5	90	0.00	29.682 
10:55	42.5	42.5	42.5	94	40.9	1	4	90	0.00	29.682 
11:00	42.6	42.6	42.6	94	41.0	2	6	90	0.00	29.667 
11:05	42.8	42.8	42.8	94	41.2	3	9	90	0.00	29.667 
11:10	42.9	42.9	42.9	94	41.3	2	6	90	0.00	29.667 
11:15	42.9	42.9	42.9	94	41.3	2	7	112	0.00	29.656 
11:20	43.1	43.1	43.1	94	41.5	2	6	90	0.00	29.656 
11:25	43.1	43.1	43.1	93	41.2	2	9	90	0.00	29.656 
11:30	43.2	43.2	43.2	93	41.3	3	7	112	0.00	29.633 
11:35	43.3	43.3	43.3	93	41.4	2	5	112	0.00	29.633 
11:40	43.5	43.5	43.5	93	41.6	2	6	112	0.00	29.633 
11:45	43.6	43.6	43.6	93	41.7	3	5	90	0.00	29.612 
11:50	43.8	41.7	43.8	93	41.9	4	9	90	0.00	29.612 
11:55	43.9	43.9	43.9	93	42.0	2	7	68	0.00	29.612 
12:00	44.1	44.1	44.1	93	42.2	3	7	90	0.00	29.601 
12:05	44.2	44.2	44.2	93	42.3	3	10	90	0.00	29.601 
12:10	44.3	44.3	44.3	92	42.1	3	6	112	0.00	29.601 
12:15	44.6	44.6	44.6	92	42.4	3	9	112	0.00	29.594 
12:20	44.8	44.8	44.8	92	42.6	3	6	90	0.00	29.594 
12:25	44.9	43.0	44.9	92	42.7	4	7	90	0.00	29.594 
12:30	45.1	45.1	45.1	92	42.9	3	7	112	0.00	29.577 
12:35	45.1	45.1	45.1	92	42.9	3	7	112	0.00	29.577 
12:40	45.2	45.2	45.2	92	43.0	2	6	112	0.00	29.577 
12:45	45.2	45.2	45.2	92	43.0	2	4	90	0.00	29.561 
12:50	45.2	45.2	45.2	92	43.0	2	5	90	0.00	29.561 
12:55	45.4	45.4	45.4	92	43.2	3	7	112	0.00	29.561 
13:00	45.5	45.5	45.5	91	43.0	3	6	90	0.00	29.546 
13:05	45.5	45.5	45.5	91	43.0	2	5	90	0.00	29.546 
13:10	45.5	45.5	45.5	91	43.0	2	5	112	0.00	29.546 
13:15	45.7	45.7	45.7	91	43.2	3	6	112	0.00	29.538 
13:20	45.7	45.7	45.7	90	42.9	2	6	90	0.00	29.538 
13:25	45.7	45.7	45.7	90	42.9	2	5	112	0.00	29.538 
13:30	45.8	45.8	45.8	90	43.0	2	5	112	0.00	29.518 
13:35	45.8	45.8	45.8	90	43.0	2	6	68	0.00	29.518 
13:40	46.0	46.0	46.0	90	43.2	2	5	112	0.00	29.518 
13:45	46.0	46.0	46.0	90	43.2	2	6	90	0.00	29.506 
13:50	46.1	46.1	46.1	90	43.3	1	4	68	0.00	29.506 
13:55	46.1	46.1	46.1	90	43.3	2	5	90	0.00	29.506 
14:00	46.1	46.1	46.1	90	43.3	2	5	90	0.00	29.496 
14:05	46.0	46.0	46.0	90	43.2	1	4	90	0.01	29.496 
14:10	46.0	46.0	46.0	90	43.2	2	4	90	0.02	29.496 
14:15	46.0	46.0	46.0	91	43.5	2	5	112	0.01	29.494 
14:20	45.8	45.8	45.8	91	43.3	2	4	112	0.00	29.494 
14:25	45.8	45.8	45.8	92	43.6	1	5	112	0.01	29.494 
14:30	45.8	45.8	45.8	92	43.6	1	4	112	0.01	29.489 
14:35	45.8	45.8	45.8	92	43.6	1	5	112	0.01	29.489 
14:40	45.8	45.8	45.8	92	43.6	2	7	90	0.00	29.489 
14:45	45.8	45.8	45.8	92	43.6	1	4	112	0.02	29.483 
14:50	45.8	45.8	45.8	92	43.6	1	3	112	0.02	29.483 
14:55	46.0	46.0	46.0	93	44.1	1	4	112	0.01	29.483 
15:00	45.8	45.8	45.8	93	43.9	1	4	90	0.00	29.485 
15:05	45.8	45.8	45.8	93	43.9	1	3	90	0.00	29.485 
15:10	46.0	46.0	46.0	93	44.1	1	4	90	0.00	29.485 
15:15	46.0	46.0	46.0	94	44.4	1	5	135	0.00	29.482 
15:20	46.2	46.2	46.2	94	44.6	2	6	135	0.00	29.482 
15:25	46.4	46.4	46.4	94	44.8	1	4	68	0.00	29.482 
15:30	46.5	46.5	46.5	94	44.9	1	5	112	0.00	29.483 
15:35	46.5	46.5	46.5	94	44.9	2	6	112	0.00	29.483 
15:40	46.7	46.7	46.7	93	44.8	1	4	45	0.00	29.483 
15:45	46.7	46.7	46.7	93	44.8	1	3	338	0.00	29.481 
15:50	46.8	46.8	46.8	93	44.9	0	2	45	0.00	29.481 
15:55	47.0	47.0	47.0	93	45.1	1	3	248	0.00	29.481 
16:00	47.1	47.1	47.1	93	45.2	1	9	248	0.00	29.487 
16:05	47.3	47.3	47.3	93	45.4	2	6	248	0.00	29.487 
16:10	47.3	47.3	47.3	93	45.4	2	4	248	0.00	29.487 
16:15	47.3	47.3	47.3	92	45.1	2	6	270	0.00	29.498 
16:20	47.3	47.3	47.3	92	45.1	2	6	248	0.00	29.498 
16:25	47.1	47.1	47.1	91	44.6	2	7	248	0.00	29.498 
16:30	47.1	47.1	47.1	90	44.3	2	6	248	0.00	29.506 
16:35	47.0	47.0	47.0	89	43.9	2	6	248	0.00	29.506 
16:40	47.0	47.0	47.0	88	43.6	3	6	248	0.00	29.506 
16:45	47.0	47.0	47.0	88	43.6	2	7	248	0.00	29.515 
16:50	46.8	46.8	46.8	87	43.1	2	5	248	0.00	29.515 
16:55	46.8	46.8	46.8	87	43.1	1	6	248	0.00	29.515 
17:00	46.8	46.8	46.8	87	43.1	1	9	225	0.00	29.522 
17:05	46.7	46.7	46.7	87	43.0	2	5	225	0.00	29.522 
17:10	46.5	46.5	46.5	87	42.8	2	6	248	0.00	29.522 
17:15	46.4	46.4	46.4	87	42.7	1	5	225	0.00	29.529 
17:20	46.2	46.2	46.2	87	42.5	1	5	225	0.00	29.529 
17:25	46.1	46.1	46.1	88	42.7	2	5	270	0.01	29.529 
17:30	46.0	46.0	46.0	88	42.6	2	7	248	0.00	29.532 
17:35	45.8	45.8	45.8	89	42.7	2	5	248	0.00	29.532 
17:40	45.7	45.7	45.7	89	42.6	1	6	248	0.00	29.532 
17:45	45.7	45.7	45.7	90	42.9	2	5	248	0.00	29.537 
17:50	45.5	45.5	45.5	90	42.7	2	5	248	0.00	29.537 
17:55	45.4	45.4	45.4	90	42.6	1	5	248	0.00	29.537 
18:00	45.4	45.4	45.4	91	42.9	1	4	248	0.00	29.548 
18:05	45.2	45.2	45.2	91	42.7	2	5	270	0.00	29.548 
18:10	45.2	45.2	45.2	91	42.7	2	5	248	0.00	29.548 
18:15	45.1	45.1	45.1	91	42.6	2	9	248	0.01	29.553 
18:20	44.9	44.9	44.9	91	42.4	3	6	248	0.00	29.553 
18:25	44.9	44.9	44.9	91	42.4	3	10	248	0.00	29.553 
18:30	44.8	44.8	44.8	91	42.3	3	11	248	0.00	29.562 
18:35	44.8	44.8	44.8	90	42.0	3	6	248	0.00	29.562 
18:40	44.6	44.6	44.6	90	41.9	2	9	248	0.00	29.562 
18:45	44.6	44.6	44.6	90	41.9	3	8	248	0.00	29.566 
18:50	44.5	44.5	44.5	89	41.5	3	6	248	0.00	29.566 
18:55	44.5	44.5	44.5	89	41.5	3	7	248	0.00	29.566 
19:00	44.5	44.5	44.5	88	41.2	3	7	248	0.00	29.574 
19:05	44.5	44.5	44.5	88	41.2	2	7	248	0.00	29.574 
19:10	44.5	44.5	44.5	88	41.2	3	9	248	0.00	29.574 
19:15	44.3	44.3	44.3	88	41.0	2	6	248	0.00	29.580 
19:20	44.3	44.3	44.3	87	40.7	2	7	248	0.00	29.580 
19:25	44.3	44.3	44.3	87	40.7	3	9	248	0.00	29.580 
19:30	44.3	44.3	44.3	86	40.4	2	4	248	0.00	29.587 
19:35	44.3	44.3	44.3	86	40.4	1	6	248	0.00	29.587 
19:40	44.2	44.2	44.2	86	40.3	2	5	248	0.00	29.587 
19:45	44.2	44.2	44.2	86	40.3	2	6	248	0.00	29.595 
19:50	44.2	44.2	44.2	86	40.3	1	4	248	0.00	29.595 
19:55	44.1	44.1	44.1	86	40.2	2	6	248	0.00	29.595 
20:00	44.1	44.1	44.1	86	40.2	2	5	248	0.00	29.601 
20:05	44.1	44.1	44.1	86	40.2	2	7	248	0.00	29.601 
20:10	44.1	44.1	44.1	86	40.2	2	6	248	0.00	29.601 
20:15	43.9	43.9	43.9	86	40.0	2	6	248	0.00	29.607 
20:20	43.9	43.9	43.9	86	40.0	2	6	248	0.00	29.607 
20:25	43.8	43.8	43.8	86	39.9	2	5	248	0.00	29.607 
20:30	43.8	43.8	43.8	86	39.9	1	5	248	0.00	29.609 
20:35	43.8	43.8	43.8	86	39.9	1	4	248	0.00	29.609 
20:40	43.6	43.6	43.6	86	39.7	1	6	248	0.00	29.609 
20:45	43.6	43.6	43.6	86	39.7	1	4	248	0.00	29.614 
20:50	43.6	43.6	43.6	86	39.7	1	5	248	0.00	29.614 
20:55	43.5	43.5	43.5	86	39.6	3	6	248	0.00	29.614 
21:00	43.5	43.5	43.5	86	39.6	2	5	225	0.00	29.615 
21:05	43.3	43.3	43.3	86	39.4	2	5	248	0.00	29.615 
21:10	43.3	43.3	43.3	87	39.7	3	10	270	0.00	29.615 
21:15	43.2	43.2	43.2	87	39.6	2	6	248	0.00	29.621 
21:20	43.2	43.2	43.2	87	39.6	1	4	248	0.00	29.621 
21:25	43.1	43.1	43.1	88	39.8	1	4	248	0.00	29.621 
21:30	42.9	42.9	42.9	88	39.6	1	4	248	0.01	29.624 
21:35	42.9	42.9	42.9	88	39.6	1	4	248	0.00	29.624 
21:40	42.8	42.8	42.8	89	39.8	1	4	248	0.00	29.624 
21:45	42.6	42.6	42.6	89	39.6	2	4	248	0.00	29.627 
21:50	42.5	42.5	42.5	89	39.5	2	7	248	0.00	29.627 
21:55	42.3	42.3	42.3	89	39.3	2	6	248	0.00	29.627 
22:00	42.3	42.3	42.3	89	39.3	2	6	248	0.00	29.633 
22:05	42.2	42.2	42.2	89	39.2	3	7	270	0.00	29.633 
22:10	42.2	42.2	42.2	89	39.2	2	5	248	0.00	29.633 
22:15	42.1	42.1	42.1	89	39.1	2	6	248	0.00	29.638 
22:20	42.1	42.1	42.1	89	39.1	3	5	248	0.00	29.638 
22:25	42.1	42.1	42.1	89	39.1	2	6	225	0.00	29.638 
22:30	41.9	41.9	41.9	89	38.9	2	5	248	0.00	29.639 
22:35	41.9	41.9	41.9	89	38.9	1	5	248	0.00	29.639 
22:40	41.8	41.8	41.8	89	38.8	2	5	248	0.00	29.639 
22:45	41.8	41.8	41.8	89	38.8	1	4	248	0.00	29.642 
22:50	41.8	41.8	41.8	88	38.5	2	5	248	0.00	29.642 
22:55	41.6	41.6	41.6	88	38.3	1	4	248	0.00	29.642 
23:00	41.6	41.6	41.6	88	38.3	2	5	248	0.00	29.643 
23:05	41.6	41.6	41.6	87	38.0	2	6	248	0.00	29.643 
23:10	41.6	41.6	41.6	87	38.0	3	6	248	0.00	29.643 
23:15	41.6	41.6	41.6	87	38.0	2	4	248	0.00	29.649 
23:20	41.6	41.6	41.6	87	38.0	2	7	248	0.00	29.649 
23:25	41.6	41.6	41.6	87	38.0	2	5	248	0.00	29.649 
23:30	41.6	41.6	41.6	87	38.0	1	5	248	0.00	29.649 
23:35	41.5	41.5	41.5	87	37.9	2	4	248	0.00	29.649 
23:40	41.5	41.5	41.5	88	38.2	1	4	248	0.00	29.649 
23:45	41.3	41.3	41.3	88	38.0	2	4	248	0.00	29.657 
23:50	41.2	41.2	41.2	88	37.9	2	4	270	0.00	29.657 
23:55	41.1	41.1	41.1	88	37.8	3	8	248	0.00	29.657 

CoCoRaHS
IN-AL-39
A2 Web Hosting
Creative Commons License
GoDaddy
search engine by freefind advanced

loaded 2018-11-15 18:49:44 • last modified 2010-11-18 10:43:29
Privacy PolicyDisclaimer
• wx.awcolley.com is powered by PmWiki v.2002016 •
• all content (unless otherwise noted) © 2018 A W Colley